Time,TemperatureF,DewpointF,PressureIn,WindDirection,WindDirectionDegrees,WindSpeedMPH,WindSpeedGustMPH,Humidity,HourlyPrecipIn,Conditions,Clouds,dailyrainin,SoftwareType,DateUTC
2013-05-23 00:23:00,64.9,64.0,29.88,East,88,0.0,-999.0,96,-99.99,,,0.14,weatherlink.com 1.10,2013-05-23 05:23:00,
2013-05-23 00:38:00,64.8,64.0,29.88,SSW,213,0.0,-999.0,96,-99.99,,,0.14,weatherlink.com 1.10,2013-05-23 05:38:00,
2013-05-23 00:53:00,64.9,64.0,29.88,SSW,213,0.0,-999.0,96,-99.99,,,0.14,weatherlink.com 1.10,2013-05-23 05:53:00,
2013-05-23 01:08:00,64.9,64.0,29.88,SSW,213,0.0,-999.0,96,-99.99,,,0.14,weatherlink.com 1.10,2013-05-23 06:08:00,
2013-05-23 01:23:00,65.2,64.0,29.88,SSW,200,0.0,-999.0,96,-99.99,,,0.14,weatherlink.com 1.10,2013-05-23 06:23:00,
2013-05-23 01:38:00,65.5,64.0,29.89,South,191,0.0,-999.0,96,-99.99,,,0.14,weatherlink.com 1.10,2013-05-23 06:38:00,
2013-05-23 01:53:00,65.8,65.0,29.89,SSW,201,0.0,-999.0,96,-99.99,,,0.15,weatherlink.com 1.10,2013-05-23 06:53:00,
2013-05-23 02:08:00,65.9,65.0,29.89,WSW,244,0.0,-999.0,96,-99.99,,,0.15,weatherlink.com 1.10,2013-05-23 07:08:00,
2013-05-23 02:23:00,65.8,65.0,29.89,SSW,207,1.0,-999.0,96,-99.99,,,0.00,weatherlink.com 1.10,2013-05-23 07:23:00,
2013-05-23 02:38:00,65.5,64.0,29.89,SSW,207,0.0,-999.0,96,-99.99,,,0.00,weatherlink.com 1.10,2013-05-23 07:38:00,
2013-05-23 02:53:00,65.0,64.0,29.90,SSW,207,0.0,-999.0,96,-99.99,,,0.00,weatherlink.com 1.10,2013-05-23 07:53:00,
2013-05-23 03:08:00,64.8,64.0,29.90,SSW,213,0.0,-999.0,96,-99.99,,,0.00,weatherlink.com 1.10,2013-05-23 08:08:00,
2013-05-23 03:23:00,64.5,63.0,29.91,SSW,213,0.0,-999.0,96,-99.99,,,0.00,weatherlink.com 1.10,2013-05-23 08:23:00,
2013-05-23 03:38:00,64.3,63.0,29.91,SW,225,0.0,-999.0,96,-99.99,,,0.00,weatherlink.com 1.10,2013-05-23 08:38:00,
2013-05-23 03:53:00,64.1,63.0,29.92,SSW,198,0.0,-999.0,96,-99.99,,,0.00,weatherlink.com 1.10,2013-05-23 08:53:00,
2013-05-23 04:08:00,64.0,63.0,29.92,SSW,198,0.0,-999.0,96,-99.99,,,0.00,weatherlink.com 1.10,2013-05-23 09:08:00,
2013-05-23 04:23:00,63.9,63.0,29.92,SSW,198,1.0,-999.0,96,-99.99,,,0.00,weatherlink.com 1.10,2013-05-23 09:23:00,
2013-05-23 04:38:00,63.8,63.0,29.92,SSW,198,0.0,-999.0,96,-99.99,,,0.00,weatherlink.com 1.10,2013-05-23 09:38:00,
2013-05-23 04:53:00,63.8,63.0,29.93,SSW,198,0.0,-999.0,96,-99.99,,,0.00,weatherlink.com 1.10,2013-05-23 09:53:00,
2013-05-23 05:08:00,63.7,63.0,29.93,SSW,198,0.0,-999.0,96,-99.99,,,0.00,weatherlink.com 1.10,2013-05-23 10:08:00,
2013-05-23 05:23:00,63.7,63.0,29.94,SSW,200,0.0,-999.0,96,-99.99,,,0.00,weatherlink.com 1.10,2013-05-23 10:23:00,
2013-05-23 05:38:00,63.7,63.0,29.94,SSW,200,0.0,-999.0,96,-99.99,,,0.00,weatherlink.com 1.10,2013-05-23 10:38:00,
2013-05-23 05:53:00,63.8,63.0,29.95,SSW,200,0.0,-999.0,97,-99.99,,,0.00,weatherlink.com 1.10,2013-05-23 10:53:00,
2013-05-23 06:08:00,63.7,63.0,29.95,SSW,200,1.0,-999.0,96,-99.99,,,0.00,weatherlink.com 1.10,2013-05-23 11:08:00,
2013-05-23 06:23:00,63.7,63.0,29.96,SSW,200,0.0,-999.0,96,-99.99,,,0.00,weatherlink.com 1.10,2013-05-23 11:23:00,
2013-05-23 06:38:00,64.0,63.0,29.96,SSW,200,0.0,-999.0,97,-99.99,,,0.00,weatherlink.com 1.10,2013-05-23 11:38:00,
2013-05-23 06:53:00,64.4,64.0,29.96,SSW,200,0.0,-999.0,97,-99.99,,,0.00,weatherlink.com 1.10,2013-05-23 11:53:00,
2013-05-23 07:08:00,65.0,64.0,29.96,SSW,200,0.0,-999.0,97,-99.99,,,0.00,weatherlink.com 1.10,2013-05-23 12:08:00,
2013-05-23 07:23:00,65.6,65.0,29.96,SSW,200,0.0,-999.0,97,-99.99,,,0.00,weatherlink.com 1.10,2013-05-23 12:23:00,
2013-05-23 07:38:00,66.2,65.0,29.96,SSW,200,0.0,-999.0,97,-99.99,,,0.00,weatherlink.com 1.10,2013-05-23 12:38:00,
2013-05-23 07:53:00,66.7,66.0,29.97,SSW,200,0.0,-999.0,97,-99.99,,,0.00,weatherlink.com 1.10,2013-05-23 12:53:00,
2013-05-23 08:08:00,67.0,66.0,29.96,SSW,200,0.0,-999.0,97,-99.99,,,0.00,weatherlink.com 1.10,2013-05-23 13:08:00,
2013-05-23 08:23:00,67.6,67.0,29.96,SSW,206,0.0,-999.0,96,-99.99,,,0.00,weatherlink.com 1.10,2013-05-23 13:23:00,
2013-05-23 08:39:00,68.3,67.0,29.97,SSW,206,2.0,-999.0,96,-99.99,,,0.00,weatherlink.com 1.10,2013-05-23 13:39:00,
2013-05-23 08:54:00,69.7,68.0,29.97,SSW,206,0.0,-999.0,95,-99.99,,,0.00,weatherlink.com 1.10,2013-05-23 13:54:00,
2013-05-23 09:09:00,70.9,69.0,29.97,WNW,284,1.0,-999.0,92,-99.99,,,0.00,weatherlink.com 1.10,2013-05-23 14:09:00,
2013-05-23 09:24:00,72.6,70.0,29.96,SW,225,1.0,-999.0,90,-99.99,,,0.00,weatherlink.com 1.10,2013-05-23 14:24:00,
2013-05-23 09:39:00,74.0,70.0,29.96,West,267,0.0,-999.0,87,-99.99,,,0.00,weatherlink.com 1.10,2013-05-23 14:39:00,
2013-05-23 09:54:00,74.4,69.0,29.96,WSW,245,1.0,-999.0,84,-99.99,,,0.00,weatherlink.com 1.10,2013-05-23 14:54:00,
2013-05-23 10:09:00,75.6,70.0,29.95,WSW,258,1.0,-999.0,83,-99.99,,,0.00,weatherlink.com 1.10,2013-05-23 15:09:00,
2013-05-23 10:24:00,76.7,68.0,29.95,WNW,298,2.0,-999.0,74,-99.99,,,0.00,weatherlink.com 1.10,2013-05-23 15:24:00,
2013-05-23 10:39:00,76.9,66.0,29.96,North,5,1.0,-999.0,69,-99.99,,,0.00,weatherlink.com 1.10,2013-05-23 15:39:00,
2013-05-23 10:54:00,77.5,66.0,29.96,WNW,290,3.0,-999.0,68,-99.99,,,0.00,weatherlink.com 1.10,2013-05-23 15:54:00,
2013-05-23 11:24:00,78.8,65.0,29.95,WSW,257,1.0,-999.0,63,-99.99,,,0.00,weatherlink.com 1.10,2013-05-23 16:24:00,
2013-05-23 11:39:00,79.0,65.0,29.95,West,279,1.0,-999.0,63,-99.99,,,0.00,weatherlink.com 1.10,2013-05-23 16:39:00,
2013-05-23 11:54:00,79.5,65.0,29.95,WNW,288,3.0,-999.0,62,-99.99,,,0.00,weatherlink.com 1.10,2013-05-23 16:54:00,
2013-05-23 12:09:00,79.1,64.0,29.95,West,280,2.0,-999.0,60,-99.99,,,0.00,weatherlink.com 1.10,2013-05-23 17:09:00,
2013-05-23 12:24:00,80.0,65.0,29.95,WNW,293,2.0,-999.0,60,-99.99,,,0.00,weatherlink.com 1.10,2013-05-23 17:24:00,
2013-05-23 12:39:00,79.8,65.0,29.95,NW,309,2.0,-999.0,61,-99.99,,,0.00,weatherlink.com 1.10,2013-05-23 17:39:00,
2013-05-23 12:54:00,80.4,64.0,29.95,SW,220,5.0,-999.0,58,-99.99,,,0.00,weatherlink.com 1.10,2013-05-23 17:54:00,
2013-05-23 13:09:00,81.0,66.0,29.95,NW,317,2.0,-999.0,61,-99.99,,,0.00,weatherlink.com 1.10,2013-05-23 18:09:00,
2013-05-23 13:24:00,81.6,65.0,29.94,SW,223,1.0,-999.0,57,-99.99,,,0.00,weatherlink.com 1.10,2013-05-23 18:24:00,
2013-05-23 13:39:00,82.0,64.0,29.94,WSW,249,1.0,-999.0,55,-99.99,,,0.00,weatherlink.com 1.10,2013-05-23 18:39:00,
2013-05-23 13:54:00,81.6,63.0,29.94,WNW,294,2.0,-999.0,53,-99.99,,,0.00,weatherlink.com 1.10,2013-05-23 18:54:00,
2013-05-23 14:09:00,81.4,63.0,29.94,WNW,287,3.0,-999.0,53,-99.99,,,0.00,weatherlink.com 1.10,2013-05-23 19:09:00,
2013-05-23 14:24:00,82.0,64.0,29.94,WNW,288,0.0,-999.0,54,-99.99,,,0.00,weatherlink.com 1.10,2013-05-23 19:24:00,
2013-05-23 14:39:00,82.6,62.0,29.93,West,263,3.0,-999.0,50,-99.99,,,0.00,weatherlink.com 1.10,2013-05-23 19:39:00,
2013-05-23 14:54:00,82.9,61.0,29.93,West,271,6.0,-999.0,47,-99.99,,,0.00,weatherlink.com 1.10,2013-05-23 19:54:00,
2013-05-23 15:10:00,82.8,61.0,29.93,NNW,337,2.0,-999.0,48,-99.99,,,0.00,weatherlink.com 1.10,2013-05-23 20:10:00,
2013-05-23 15:25:00,82.6,60.0,29.93,NE,50,1.0,-999.0,47,-99.99,,,0.00,weatherlink.com 1.10,2013-05-23 20:25:00,
2013-05-23 15:40:00,82.7,60.0,29.93,WNW,300,2.0,-999.0,47,-99.99,,,0.00,weatherlink.com 1.10,2013-05-23 20:40:00,
2013-05-23 15:55:00,82.4,61.0,29.92,West,263,2.0,-999.0,49,-99.99,,,0.00,weatherlink.com 1.10,2013-05-23 20:55:00,
2013-05-23 16:10:00,82.0,62.0,29.92,NW,312,0.0,-999.0,50,-99.99,,,0.00,weatherlink.com 1.10,2013-05-23 21:10:00,
2013-05-23 16:25:00,82.3,61.0,29.92,WNW,298,2.0,-999.0,49,-99.99,,,0.00,weatherlink.com 1.10,2013-05-23 21:25:00,
2013-05-23 16:40:00,81.6,61.0,29.92,West,268,3.0,-999.0,50,-99.99,,,0.00,weatherlink.com 1.10,2013-05-23 21:40:00,
2013-05-23 16:55:00,81.3,61.0,29.93,NW,321,2.0,-999.0,51,-99.99,,,0.00,weatherlink.com 1.10,2013-05-23 21:55:00,
2013-05-23 17:10:00,82.2,59.0,29.93,West,271,6.0,-999.0,46,-99.99,,,0.00,weatherlink.com 1.10,2013-05-23 22:10:00,
2013-05-23 17:25:00,80.8,60.0,29.93,NNE,14,2.0,-999.0,49,-99.99,,,0.00,weatherlink.com 1.10,2013-05-23 22:25:00,
2013-05-23 17:40:00,80.4,59.0,29.93,WNW,298,2.0,-999.0,48,-99.99,,,0.00,weatherlink.com 1.10,2013-05-23 22:40:00,
2013-05-23 17:55:00,80.2,59.0,29.93,NW,313,0.0,-999.0,49,-99.99,,,0.00,weatherlink.com 1.10,2013-05-23 22:55:00,
2013-05-23 18:10:00,79.8,60.0,29.92,NW,313,1.0,-999.0,51,-99.99,,,0.00,weatherlink.com 1.10,2013-05-23 23:10:00,
2013-05-23 18:25:00,79.4,61.0,29.93,West,268,0.0,-999.0,54,-99.99,,,0.00,weatherlink.com 1.10,2013-05-23 23:25:00,
2013-05-23 18:40:00,78.8,60.0,29.93,WNW,294,1.0,-999.0,53,-99.99,,,0.00,weatherlink.com 1.10,2013-05-23 23:40:00,
2013-05-23 18:55:00,77.8,61.0,29.93,WNW,287,1.0,-999.0,57,-99.99,,,0.00,weatherlink.com 1.10,2013-05-23 23:55:00,
2013-05-23 19:10:00,76.7,61.0,29.93,WNW,286,0.0,-999.0,59,-99.99,,,0.00,weatherlink.com 1.10,2013-05-24 00:10:00,
2013-05-23 19:25:00,75.7,61.0,29.93,WNW,286,0.0,-999.0,61,-99.99,,,0.00,weatherlink.com 1.10,2013-05-24 00:25:00,
2013-05-23 19:40:00,74.5,61.0,29.94,WNW,286,0.0,-999.0,64,-99.99,,,0.00,weatherlink.com 1.10,2013-05-24 00:40:00,
2013-05-23 19:55:00,73.3,61.0,29.94,WNW,286,0.0,-999.0,65,-99.99,,,0.00,weatherlink.com 1.10,2013-05-24 00:55:00,
2013-05-23 20:10:00,72.1,61.0,29.94,WNW,286,0.0,-999.0,68,-99.99,,,0.00,weatherlink.com 1.10,2013-05-24 01:10:00,
2013-05-23 20:25:00,70.8,60.0,29.94,WNW,286,0.0,-999.0,69,-99.99,,,0.00,weatherlink.com 1.10,2013-05-24 01:25:00,
2013-05-23 20:40:00,69.9,60.0,29.95,WNW,286,0.0,-999.0,71,-99.99,,,0.00,weatherlink.com 1.10,2013-05-24 01:40:00,
2013-05-23 20:55:00,69.3,60.0,29.95,WNW,286,0.0,-999.0,72,-99.99,,,0.00,weatherlink.com 1.10,2013-05-24 01:55:00,
2013-05-23 21:10:00,68.9,60.0,29.95,WNW,286,0.0,-999.0,73,-99.99,,,0.00,weatherlink.com 1.10,2013-05-24 02:10:00,
2013-05-23 21:25:00,68.5,60.0,29.96,WNW,286,0.0,-999.0,74,-99.99,,,0.00,weatherlink.com 1.10,2013-05-24 02:25:00,
2013-05-23 21:40:00,68.2,60.0,29.96,WNW,286,0.0,-999.0,74,-99.99,,,0.00,weatherlink.com 1.10,2013-05-24 02:40:00,
2013-05-23 21:55:00,67.9,60.0,29.97,WNW,286,0.0,-999.0,75,-99.99,,,0.00,weatherlink.com 1.10,2013-05-24 02:55:00,
2013-05-23 22:10:00,67.6,60.0,29.98,WNW,286,0.0,-999.0,76,-99.99,,,0.00,weatherlink.com 1.10,2013-05-24 03:10:00,
2013-05-23 22:25:00,67.2,59.0,29.98,WNW,286,0.0,-999.0,76,-99.99,,,0.00,weatherlink.com 1.10,2013-05-24 03:25:00,
2013-05-23 22:40:00,66.8,59.0,29.98,WNW,286,0.0,-999.0,77,-99.99,,,0.00,weatherlink.com 1.10,2013-05-24 03:40:00,
2013-05-23 22:55:00,66.3,59.0,29.99,WNW,286,0.0,-999.0,78,-99.99,,,0.00,weatherlink.com 1.10,2013-05-24 03:55:00,
2013-05-23 23:10:00,65.8,59.0,30.00,WNW,286,0.0,-999.0,79,-99.99,,,0.00,weatherlink.com 1.10,2013-05-24 04:10:00,
2013-05-23 23:25:00,65.3,59.0,30.00,WNW,286,0.0,-999.0,80,-99.99,,,0.00,weatherlink.com 1.10,2013-05-24 04:25:00,
2013-05-23 23:40:00,64.8,59.0,30.01,WNW,286,0.0,-999.0,81,-99.99,,,0.00,weatherlink.com 1.10,2013-05-24 04:40:00,
2013-05-23 23:55:00,64.3,59.0,30.01,WNW,286,1.0,-999.0,82,-99.99,,,0.00,weatherlink.com 1.10,2013-05-24 04:55:00,